Time;durP1;ratioP1;P1;durP2;ratioP2;P2;SDS_P1;SDS_P2;PMS_P1;PMS_P2;Temp;Humidity;BMP_temperature;BMP_pressure;BME280_temperature;BME280_humidity;BME280_pressure;Samples;Min_cycle;Max_cycle;Signal;HPM_P1;HPM_P2
2022/04/16 00:01:42;;;;;;;6.05;3.17;;;;;;;11.79;42.13;94732.34;5094080;28;20027;-69
2022/04/16 00:04:09;;;;;;;4.50;3.53;;;;;;;11.84;42.41;94737.97;5111189;28;20066;-69
2022/04/16 00:06:35;;;;;;;5.95;3.65;;;;;;;11.80;42.47;94739.19;5111046;28;20027;-69
2022/04/16 00:09:00;;;;;;;5.70;3.25;;;;;;;11.74;42.51;94744.94;5112120;28;20038;-68
2022/04/16 00:11:26;;;;;;;6.45;3.15;;;;;;;11.66;43.16;94747.41;5112115;28;20023;-69
2022/04/16 00:13:51;;;;;;;4.13;3.20;;;;;;;11.59;42.86;94732.34;5112218;28;20039;-69
2022/04/16 00:16:19;;;;;;;7.15;3.92;;;;;;;11.62;42.88;94742.47;5093561;28;20405;-68
2022/04/16 00:18:45;;;;;;;7.13;3.63;;;;;;;11.53;43.26;94735.50;5112075;28;20081;-69
2022/04/16 00:21:11;;;;;;;4.50;3.53;;;;;;;11.55;43.29;94741.34;5112006;28;20016;-69
2022/04/16 00:23:37;;;;;;;4.53;3.53;;;;;;;11.53;43.79;94735.50;5093719;28;20524;-68
2022/04/16 00:26:03;;;;;;;6.97;3.90;;;;;;;11.51;44.02;94750.41;5110885;28;20048;-69
2022/04/16 00:28:28;;;;;;;5.85;3.40;;;;;;;11.33;43.71;94736.38;5110664;28;20436;-69
2022/04/16 00:30:56;;;;;;;7.45;3.80;;;;;;;11.23;43.91;94738.97;5110543;28;20116;-69
2022/04/16 00:33:21;;;;;;;5.40;3.17;;;;;;;11.13;44.36;94731.13;5093725;28;20390;-69
2022/04/16 00:35:47;;;;;;;6.20;3.72;;;;;;;11.21;44.10;94740.06;5093622;28;20034;-68
2022/04/16 00:38:12;;;;;;;6.07;3.60;;;;;;;11.17;44.46;94734.28;5111621;28;20406;-68
2022/04/16 00:40:38;;;;;;;5.65;3.80;;;;;;;11.08;44.57;94737.69;5111684;28;20035;-69
2022/04/16 00:43:05;;;;;;;5.35;3.70;;;;;;;11.07;44.70;94739.47;5110630;28;20024;-68
2022/04/16 00:45:31;;;;;;;6.72;3.97;;;;;;;11.05;44.68;94730.97;5119809;27;20396;-68
2022/04/16 00:47:57;;;;;;;6.10;3.95;;;;;;;10.99;45.32;94725.50;5130820;27;20432;-69
2022/04/16 00:50:22;;;;;;;7.15;4.15;;;;;;;10.93;45.54;94734.63;5113988;27;20027;-69
2022/04/16 00:52:48;;;;;;;5.88;4.20;;;;;;;10.87;45.44;94730.78;5131956;27;20026;-68
2022/04/16 00:55:13;;;;;;;8.02;4.20;;;;;;;10.80;45.98;94724.44;5113829;27;20035;-68
2022/04/16 00:57:39;;;;;;;7.95;4.20;;;;;;;10.69;46.05;94717.56;5130613;27;20039;-69
2022/04/16 01:00:06;;;;;;;6.18;4.32;;;;;;;10.75;45.96;94716.22;5113921;27;20035;-68
2022/04/16 01:02:34;;;;;;;5.90;4.00;;;;;;;10.68;46.34;94721.13;5130870;27;20031;-69
2022/04/16 01:04:59;;;;;;;6.03;4.15;;;;;;;10.59;46.37;94719.31;5132160;27;20027;-68
2022/04/16 01:07:25;;;;;;;5.60;4.20;;;;;;;10.70;46.51;94728.81;5130546;28;20058;-68
2022/04/16 01:09:50;;;;;;;11.18;4.25;;;;;;;10.36;46.98;94720.41;5130701;28;20533;-68
2022/04/16 01:12:15;;;;;;;6.30;4.45;;;;;;;10.34;47.40;94714.53;5130473;27;20068;-68
2022/04/16 01:14:41;;;;;;;6.80;4.20;;;;;;;10.22;47.50;94713.72;5113300;28;20477;-68
2022/04/16 01:17:07;;;;;;;7.13;4.20;;;;;;;10.32;47.12;94713.81;5130491;28;20454;-69
2022/04/16 01:19:32;;;;;;;7.05;4.07;;;;;;;10.13;47.16;94698.91;5131987;27;20027;-69
2022/04/16 01:21:58;;;;;;;5.70;4.28;;;;;;;9.96;47.78;94708.91;5113209;28;20023;-68
2022/04/16 01:24:23;;;;;;;5.78;4.13;;;;;;;9.78;48.93;94713.84;5130495;28;20038;-68
2022/04/16 01:26:49;;;;;;;6.88;4.00;;;;;;;9.72;49.85;94705.72;5113222;28;20023;-69
2022/04/16 01:29:15;;;;;;;5.97;4.53;;;;;;;9.55;50.19;94720.88;5133471;27;20100;-68
2022/04/16 01:31:40;;;;;;;6.10;3.80;;;;;;;9.39;50.43;94721.28;5132889;27;20040;-68
2022/04/16 01:34:06;;;;;;;5.10;3.95;;;;;;;9.56;50.30;94719.13;5133790;27;20031;-68
2022/04/16 01:36:34;;;;;;;6.32;4.05;;;;;;;9.57;50.70;94728.53;5134374;27;20047;-68
2022/04/16 01:39:00;;;;;;;8.10;4.43;;;;;;;9.55;51.49;94735.59;5135836;27;20041;-68
2022/04/16 01:41:25;;;;;;;6.35;4.18;;;;;;;9.55;50.56;94727.81;5134388;27;20023;-69
2022/04/16 01:43:51;;;;;;;5.93;4.20;;;;;;;9.48;52.32;94740.47;5134260;27;20027;-68
2022/04/16 01:46:17;;;;;;;5.55;3.85;;;;;;;9.45;51.20;94734.72;5118443;27;20019;-68
2022/04/16 01:48:42;;;;;;;8.05;4.22;;;;;;;9.43;50.00;94740.00;5113724;28;20031;-69
2022/04/16 01:51:08;;;;;;;7.55;4.43;;;;;;;9.49;50.21;94749.06;5114912;28;20020;-68
2022/04/16 01:53:34;;;;;;;5.72;4.38;;;;;;;9.57;49.38;94750.09;5115232;28;20110;-69
2022/04/16 01:56:00;;;;;;;5.50;4.45;;;;;;;9.60;49.72;94747.25;5113530;28;20115;-68
2022/04/16 01:58:25;;;;;;;7.25;4.43;;;;;;;9.56;49.54;94732.09;5096489;28;20521;-69
2022/04/16 02:00:51;;;;;;;5.75;4.18;;;;;;;9.64;49.82;94732.28;5096538;28;20042;-69
2022/04/16 02:03:16;;;;;;;5.97;4.28;;;;;;;9.58;49.58;94737.94;5113285;28;20023;-69
2022/04/16 02:05:42;;;;;;;6.70;4.22;;;;;;;9.57;49.49;94736.31;5096360;28;20044;-69
2022/04/16 02:08:07;;;;;;;7.13;4.28;;;;;;;9.48;50.13;94732.69;5114541;28;20050;-69
2022/04/16 02:10:34;;;;;;;6.22;3.70;;;;;;;9.44;50.01;94727.84;5114990;28;20528;-70
2022/04/16 02:13:00;;;;;;;5.22;3.97;;;;;;;9.49;49.78;94746.47;5096295;28;20049;-70
2022/04/16 02:15:27;;;;;;;6.38;4.30;;;;;;;9.40;50.47;94738.47;5113496;28;20042;-70
2022/04/16 02:17:56;;;;;;;6.68;4.47;;;;;;;9.36;50.47;94736.25;5096237;28;20035;-70
2022/04/16 02:20:23;;;;;;;5.93;4.57;;;;;;;9.33;50.79;94731.31;5114837;28;20030;-70
2022/04/16 02:22:48;;;;;;;6.15;4.25;;;;;;;9.33;50.55;94728.72;5114490;28;20509;-70
2022/04/16 02:25:15;;;;;;;7.40;4.68;;;;;;;9.27;50.87;94724.84;5096186;28;20109;-70
2022/04/16 02:27:40;;;;;;;6.28;4.47;;;;;;;9.24;50.69;94727.66;5112891;28;20035;-70
2022/04/16 02:30:11;;;;;;;7.45;4.65;;;;;;;9.20;51.14;94726.28;5114593;27;20027;-70
2022/04/16 02:32:41;;;;;;;6.35;4.53;;;;;;;9.10;51.14;94736.53;5114060;28;20130;-70
2022/04/16 02:35:07;;;;;;;9.10;4.45;;;;;;;9.14;51.36;94730.19;5096137;28;20084;-69
2022/04/16 02:37:33;;;;;;;6.70;4.57;;;;;;;9.01;51.65;94726.88;5095792;28;20066;-70
2022/04/16 02:39:58;;;;;;;6.68;4.35;;;;;;;9.00;51.83;94729.59;5112638;28;20027;-70
2022/04/16 02:42:23;;;;;;;5.85;4.28;;;;;;;8.89;52.05;94733.84;5113857;27;20528;-70
2022/04/16 02:47:33;;;;;;;7.60;4.18;;;;;;;8.93;52.01;94729.25;5112818;28;20038;-70
2022/04/16 02:49:58;;;;;;;4.90;3.97;;;;;;;8.91;52.07;94726.78;5095672;28;20566;-69
2022/04/16 02:52:25;;;;;;;5.93;4.10;;;;;;;8.86;52.14;94723.72;5095421;28;20088;-69
2022/04/16 02:54:52;;;;;;;6.65;4.18;;;;;;;8.90;51.74;94735.50;5112778;28;20032;-69
2022/04/16 02:57:18;;;;;;;5.63;4.00;;;;;;;8.83;52.02;94728.31;5112374;28;20103;-70
2022/04/16 02:59:43;;;;;;;5.53;4.05;;;;;;;8.79;51.83;94729.50;5095570;28;20063;-69
2022/04/16 03:02:11;;;;;;;5.47;4.55;;;;;;;8.80;51.81;94729.38;5113574;28;20024;-70
2022/04/16 03:04:36;;;;;;;5.65;4.40;;;;;;;8.86;52.00;94728.06;5078945;28;20063;-69
2022/04/16 03:07:02;;;;;;;6.00;4.18;;;;;;;8.84;51.74;94727.38;5112222;28;20035;-70
2022/04/16 03:09:27;;;;;;;5.75;4.07;;;;;;;8.84;51.84;94732.56;5113492;28;20088;-69
2022/04/16 03:11:52;;;;;;;5.03;4.00;;;;;;;8.80;52.11;94723.38;5112136;28;20034;-69
2022/04/16 03:19:46;;;;;;;6.18;3.92;;;;;;;8.88;52.37;94737.38;5097963;28;20127;-69
2022/04/16 03:22:12;;;;;;;6.03;4.13;;;;;;;8.89;51.66;94741.63;5094859;28;20240;-70
2022/04/16 03:24:38;;;;;;;5.07;3.50;;;;;;;8.86;52.47;94741.00;5113450;28;20043;-69
2022/04/16 03:27:04;;;;;;;8.60;3.67;;;;;;;8.83;52.16;94739.50;5111788;28;20028;-70
2022/04/16 03:29:29;;;;;;;7.05;4.15;;;;;;;8.83;51.95;94749.03;5113233;28;20035;-70
2022/04/16 03:31:55;;;;;;;5.55;3.90;;;;;;;8.86;51.63;94743.59;5113201;28;20027;-70
2022/04/16 03:34:21;;;;;;;5.10;3.50;;;;;;;8.77;51.48;94747.72;5113191;28;20063;-70
2022/04/16 03:36:46;;;;;;;6.05;3.53;;;;;;;8.75;51.70;94757.41;5111474;28;20501;-70
2022/04/16 03:39:12;;;;;;;4.47;3.08;;;;;;;8.72;51.28;94755.06;5111784;28;20047;-70
2022/04/16 03:41:38;;;;;;;5.97;3.55;;;;;;;8.70;51.04;94757.75;5111847;28;20023;-70
2022/04/16 03:44:04;;;;;;;5.78;3.45;;;;;;;8.78;51.39;94759.75;5094519;28;20039;-70
2022/04/16 03:46:30;;;;;;;5.85;3.38;;;;;;;8.78;50.71;94762.34;5112164;27;20015;-70
2022/04/16 03:48:55;;;;;;;5.90;3.72;;;;;;;8.89;50.61;94764.94;5114744;27;20095;-70
2022/04/16 03:51:21;;;;;;;7.28;3.50;;;;;;;8.85;51.18;94763.50;5132384;27;20080;-69
2022/04/16 03:53:46;;;;;;;6.57;3.60;;;;;;;8.92;50.84;94775.06;5131831;27;20046;-70
2022/04/16 04:01:40;;;;;;;6.18;3.58;;;;;;;9.13;50.46;94776.94;5132974;27;20083;-68
2022/04/16 04:04:05;;;;;;;9.05;3.60;;;;;;;9.11;50.51;94776.22;5131600;27;20027;-67
2022/04/16 04:06:31;;;;;;;5.50;3.80;;;;;;;9.18;50.53;94777.41;5132819;27;20473;-69
2022/04/16 04:08:57;;;;;;;6.47;3.50;;;;;;;9.29;50.27;94790.34;5131538;27;20486;-69
2022/04/16 04:11:22;;;;;;;5.63;3.40;;;;;;;9.31;49.64;94792.84;5131446;27;20031;-70
2022/04/16 04:13:47;;;;;;;5.50;3.60;;;;;;;9.34;49.68;94796.00;5114305;27;20061;-70
2022/04/16 04:16:13;;;;;;;4.05;3.30;;;;;;;9.42;51.01;94791.97;5107522;28;20522;-70
2022/04/16 04:18:38;;;;;;;6.80;3.30;;;;;;;9.50;49.74;94793.03;5115928;27;20032;-70
2022/04/16 04:21:04;;;;;;;4.60;3.40;;;;;;;9.52;49.78;94792.91;5119126;27;20022;-70
2022/04/16 04:23:29;;;;;;;7.15;3.65;;;;;;;9.54;49.58;94780.66;5153220;27;20019;-69
2022/04/16 04:25:54;;;;;;;4.43;3.45;;;;;;;9.58;49.29;94792.41;5133421;27;20027;-69
2022/04/16 04:28:20;;;;;;;5.93;4.07;;;;;;;9.28;51.17;94790.50;5131196;27;20019;-69
2022/04/16 04:30:45;;;;;;;6.63;4.97;;;;;;;9.36;51.47;94794.13;5097016;27;20031;-69
2022/04/16 04:33:11;;;;;;;7.53;4.90;;;;;;;9.39;51.03;94800.84;5132415;27;20019;-67
2022/04/16 04:35:36;;;;;;;11.77;4.97;;;;;;;9.44;51.09;94803.06;5114091;27;20477;-68
2022/04/16 04:38:02;;;;;;;7.13;4.65;;;;;;;9.63;50.50;94798.06;5130854;27;20047;-69
2022/04/16 04:40:29;;;;;;;8.63;4.90;;;;;;;9.87;51.16;94803.09;5130021;27;20035;-67
2022/04/16 04:42:54;;;;;;;8.55;4.43;;;;;;;10.34;50.60;94810.59;5130105;27;20035;-67
2022/04/16 04:45:19;;;;;;;10.70;4.20;;;;;;;10.71;49.76;94804.00;5131074;27;20424;-67
2022/04/16 04:47:45;;;;;;;4.22;3.45;;;;;;;10.96;49.37;94804.53;5130426;27;20030;-67
2022/04/16 04:50:10;;;;;;;6.63;3.53;;;;;;;11.16;49.16;94808.88;5119850;27;20050;-67
2022/04/16 04:52:36;;;;;;;6.30;3.50;;;;;;;11.05;50.04;94816.75;5121764;27;20034;-67
2022/04/16 04:55:02;;;;;;;6.57;3.80;;;;;;;11.47;48.26;94819.25;5123672;27;20056;-67
2022/04/16 04:57:27;;;;;;;8.05;4.38;;;;;;;11.72;46.18;94824.94;5107032;28;20019;-68
2022/04/16 04:59:53;;;;;;;7.38;4.78;;;;;;;12.41;44.48;94822.28;5124854;27;20031;-68
2022/04/16 05:02:18;;;;;;;7.50;5.13;;;;;;;13.21;42.17;94804.56;5095243;27;20076;-68
2022/04/16 05:04:44;;;;;;;10.77;4.80;;;;;;;13.91;41.35;94817.16;5096152;27;20031;-67
2022/04/16 05:07:09;;;;;;;7.18;5.05;;;;;;;14.47;39.92;94811.63;5130618;27;20027;-67
2022/04/16 05:09:35;;;;;;;14.10;5.80;;;;;;;14.55;39.16;94825.78;5125470;28;20032;-68
2022/04/16 05:12:01;;;;;;;8.50;5.95;;;;;;;14.68;38.82;94824.44;5093456;28;20028;-67
2022/04/16 05:14:26;;;;;;;10.68;6.28;;;;;;;14.66;38.29;94813.28;5132057;27;20469;-67
2022/04/16 05:16:52;;;;;;;13.90;6.65;;;;;;;14.68;38.87;94811.34;5130518;28;20413;-67
2022/04/16 05:19:17;;;;;;;17.10;7.40;;;;;;;14.37;39.25;94820.53;5111664;28;20043;-68
2022/04/16 05:21:43;;;;;;;19.50;8.05;;;;;;;14.10;40.14;94814.41;5112001;28;20031;-67
2022/04/16 05:24:08;;;;;;;14.35;8.27;;;;;;;14.02;40.64;94799.47;5121283;28;20417;-67
2022/04/16 05:26:34;;;;;;;15.35;8.07;;;;;;;13.75;41.12;94807.34;5076072;28;20055;-67
2022/04/16 05:28:59;;;;;;;13.95;7.50;;;;;;;13.74;41.30;94806.53;5111136;28;20474;-68
2022/04/16 05:31:27;;;;;;;21.15;8.30;;;;;;;13.42;41.82;94799.13;5109857;28;20489;-68
2022/04/16 05:36:37;;;;;;;13.60;7.10;;;;;;;13.52;42.04;94804.31;5095375;28;20520;-67
2022/04/16 05:39:03;;;;;;;16.95;7.63;;;;;;;13.62;42.09;94798.09;5111136;28;20031;-67
2022/04/16 05:41:28;;;;;;;10.55;6.97;;;;;;;13.61;42.35;94800.81;5077582;28;20034;-67
2022/04/16 05:43:54;;;;;;;14.93;6.93;;;;;;;13.57;42.19;94802.91;5122275;28;20397;-69
2022/04/16 05:46:19;;;;;;;8.88;5.80;;;;;;;13.65;41.65;94802.19;5110917;28;20535;-68
2022/04/16 05:48:44;;;;;;;15.35;6.05;;;;;;;13.60;41.41;94807.03;5125425;28;20504;-68
2022/04/16 05:51:10;;;;;;;8.02;5.57;;;;;;;13.72;41.86;94805.03;5131379;27;20023;-68
2022/04/16 05:53:36;;;;;;;10.32;5.90;;;;;;;13.74;41.75;94803.91;5131473;27;20035;-68
2022/04/16 05:56:01;;;;;;;15.10;6.45;;;;;;;14.03;41.81;94802.91;5092079;28;20036;-68
2022/04/16 05:58:27;;;;;;;11.05;6.00;;;;;;;14.05;40.73;94793.94;5121525;28;20031;-68
2022/04/16 06:00:55;;;;;;;11.70;6.68;;;;;;;14.24;40.74;94797.41;5125094;28;20109;-68
2022/04/16 06:03:20;;;;;;;12.75;5.63;;;;;;;14.33;41.29;94791.25;5131164;27;20023;-68
2022/04/16 06:05:46;;;;;;;7.63;5.70;;;;;;;14.49;40.80;94793.19;5094833;28;20500;-67
2022/04/16 06:08:11;;;;;;;12.77;6.50;;;;;;;14.64;41.15;94785.66;5122032;28;20481;-67
2022/04/16 06:10:37;;;;;;;15.43;6.55;;;;;;;14.62;40.92;94782.38;5127967;27;20039;-69
2022/04/16 06:13:04;;;;;;;8.45;5.00;;;;;;;14.78;37.97;94794.75;5111146;28;20053;-68
2022/04/16 06:15:30;;;;;;;12.85;9.45;;;;;;;14.88;38.94;94780.59;5131552;27;20419;-68
2022/04/16 06:17:55;;;;;;;11.18;6.70;;;;;;;15.08;39.31;94789.03;5134887;27;20016;-68
2022/04/16 06:20:20;;;;;;;8.77;6.45;;;;;;;15.36;37.70;94794.09;5133930;27;20532;-71
2022/04/16 06:22:46;;;;;;;9.85;5.82;;;;;;;15.50;36.96;94787.44;5134800;27;20024;-69
2022/04/16 06:25:12;;;;;;;8.73;5.78;;;;;;;15.55;36.85;94772.91;5099350;27;20035;-70
2022/04/16 06:27:38;;;;;;;11.32;5.07;;;;;;;15.68;36.45;94787.34;5124315;27;20023;-70
2022/04/16 06:30:08;;;;;;;10.50;4.90;;;;;;;15.77;36.21;94781.19;5134692;27;20450;-71
2022/04/16 06:32:34;;;;;;;8.05;4.80;;;;;;;15.97;36.01;94790.41;5103304;27;20084;-69
2022/04/16 06:35:00;;;;;;;8.18;4.70;;;;;;;15.96;35.11;94769.59;5131688;27;20039;-69
2022/04/16 06:37:25;;;;;;;9.45;5.22;;;;;;;16.12;35.10;94779.28;5130099;27;20043;-68
2022/04/16 06:39:51;;;;;;;10.00;4.65;;;;;;;16.40;34.88;94785.84;5105572;28;20512;-68
2022/04/16 06:42:16;;;;;;;11.35;4.45;;;;;;;16.48;35.19;94780.63;5113926;28;20027;-69
2022/04/16 06:44:43;;;;;;;9.30;4.95;;;;;;;16.34;33.81;94760.31;5114128;28;20062;-69
2022/04/16 06:47:08;;;;;;;9.00;5.63;;;;;;;16.56;34.31;94768.50;5112512;28;20426;-68
2022/04/16 06:49:33;;;;;;;6.95;4.90;;;;;;;16.78;33.70;94777.53;5129809;27;20084;-69
2022/04/16 06:51:59;;;;;;;12.00;6.22;;;;;;;16.90;31.60;94773.56;5113708;28;20035;-69
2022/04/16 06:54:24;;;;;;;18.33;10.90;;;;;;;17.00;29.86;94771.59;5113893;28;20496;-69
2022/04/16 06:56:50;;;;;;;12.90;9.10;;;;;;;17.13;29.90;94777.16;5113375;28;20039;-69
2022/04/16 06:59:15;;;;;;;14.02;7.32;;;;;;;17.19;29.49;94765.97;5128397;27;20024;-68
2022/04/16 07:01:41;;;;;;;19.92;8.63;;;;;;;17.34;29.31;94763.44;5112173;28;20058;-69
2022/04/16 07:04:06;;;;;;;12.70;8.93;;;;;;;17.41;29.25;94761.78;5113956;27;20031;-69
2022/04/16 07:06:31;;;;;;;17.50;10.48;;;;;;;17.46;29.53;94752.56;5126174;27;20112;-69
2022/04/16 07:08:57;;;;;;;18.80;12.18;;;;;;;17.58;29.58;94764.34;5121121;27;20104;-69
2022/04/16 07:11:22;;;;;;;10.90;7.28;;;;;;;17.64;30.53;94766.28;5114136;27;20470;-70
2022/04/16 07:13:48;;;;;;;13.25;9.63;;;;;;;17.72;28.93;94766.25;5118783;27;20286;-69
2022/04/16 07:16:13;;;;;;;9.13;6.47;;;;;;;17.76;29.17;94759.66;5118992;27;20031;-70
2022/04/16 07:18:38;;;;;;;8.55;5.40;;;;;;;17.80;29.45;94761.00;5113973;27;20410;-70
2022/04/16 07:21:04;;;;;;;8.23;4.45;;;;;;;17.84;30.12;94762.28;5114236;27;20076;-70
2022/04/16 07:23:29;;;;;;;10.52;4.60;;;;;;;17.99;29.71;94756.28;5113223;28;20045;-70
2022/04/16 07:25:56;;;;;;;8.93;6.43;;;;;;;18.15;30.03;94753.53;5112197;28;20036;-70
2022/04/16 07:28:21;;;;;;;6.88;4.40;;;;;;;18.31;29.76;94752.63;5112659;28;20099;-70
2022/04/16 07:30:51;;;;;;;7.50;6.07;;;;;;;18.43;29.44;94745.13;5111536;28;20035;-70
2022/04/16 07:33:16;;;;;;;9.38;5.57;;;;;;;18.36;28.97;94739.75;5094446;28;20028;-70
2022/04/16 07:35:42;;;;;;;8.65;4.97;;;;;;;18.40;29.45;94732.34;5111100;28;20035;-70
2022/04/16 07:38:07;;;;;;;9.57;5.43;;;;;;;18.58;30.02;94743.34;5093669;28;20048;-70
2022/04/16 07:40:34;;;;;;;9.13;4.88;;;;;;;18.71;29.40;94746.19;5094885;28;20092;-70
2022/04/16 07:43:00;;;;;;;9.13;5.55;;;;;;;18.68;28.18;94738.66;5112707;28;20549;-70
2022/04/16 07:45:25;;;;;;;9.07;5.43;;;;;;;18.64;28.35;94732.13;5124242;27;20042;-70
2022/04/16 07:47:51;;;;;;;7.30;5.15;;;;;;;18.66;29.31;94732.75;5132490;27;20477;-70
2022/04/16 07:50:16;;;;;;;7.50;5.05;;;;;;;18.81;29.20;94738.09;5132323;27;20035;-70
2022/04/16 07:52:43;;;;;;;6.25;5.07;;;;;;;18.83;28.13;94735.25;5132992;27;20019;-70
2022/04/16 07:55:08;;;;;;;12.23;4.80;;;;;;;18.85;29.17;94733.25;5132677;27;20072;-69
2022/04/16 07:57:34;;;;;;;9.25;4.50;;;;;;;18.97;28.74;94734.44;5113322;27;20023;-70
2022/04/16 07:59:59;;;;;;;7.43;4.75;;;;;;;18.92;28.31;94723.66;5125346;27;20049;-69
2022/04/16 08:02:24;;;;;;;11.38;6.05;;;;;;;18.93;28.51;94725.28;5112115;27;20019;-69
2022/04/16 08:04:50;;;;;;;11.68;5.57;;;;;;;18.80;28.95;94719.81;5122888;27;20409;-69
2022/04/16 08:07:15;;;;;;;12.23;5.82;;;;;;;18.88;28.92;94727.63;5110942;28;20055;-69
2022/04/16 08:09:41;;;;;;;8.45;4.88;;;;;;;18.79;29.28;94712.94;5118548;27;20035;-69
2022/04/16 08:12:07;;;;;;;7.43;4.10;;;;;;;18.86;29.75;94729.63;5117879;27;20469;-69
2022/04/16 08:14:33;;;;;;;7.10;4.75;;;;;;;18.95;29.44;94725.94;5110640;28;21083;-69
2022/04/16 08:16:58;;;;;;;5.90;4.28;;;;;;;19.07;29.07;94727.09;5121244;27;20042;-69
2022/04/16 08:19:24;;;;;;;16.75;9.65;;;;;;;19.04;28.54;94719.56;5102369;27;20424;-69
2022/04/16 08:21:49;;;;;;;18.17;11.20;;;;;;;19.02;28.95;94715.50;5121965;27;20031;-69
2022/04/16 08:26:55;;;;;;;43.65;30.77;;;;;;;19.00;28.70;94707.78;5149278;27;20076;-69
2022/04/16 08:29:22;;;;;;;14.82;10.68;;;;;;;19.03;28.44;94717.13;5131988;27;20062;-69
2022/04/16 08:31:48;;;;;;;7.57;5.90;;;;;;;18.94;28.52;94716.38;5129206;27;20042;-69
2022/04/16 08:34:13;;;;;;;9.68;6.00;;;;;;;18.83;29.03;94714.19;5131870;27;20303;-69
2022/04/16 08:36:39;;;;;;;8.65;5.20;;;;;;;18.75;28.72;94707.22;5096546;27;20043;-69
2022/04/16 08:39:04;;;;;;;6.32;5.20;;;;;;;18.73;28.80;94715.25;5129516;27;20027;-69
2022/04/16 08:41:30;;;;;;;10.93;5.05;;;;;;;18.69;29.16;94708.72;5130252;27;20023;-69
2022/04/16 08:43:56;;;;;;;10.00;5.80;;;;;;;18.74;29.12;94703.75;5135476;27;20027;-69
2022/04/16 08:46:22;;;;;;;10.38;5.18;;;;;;;18.77;29.07;94707.84;5111162;27;20069;-69
2022/04/16 08:48:48;;;;;;;8.00;4.60;;;;;;;18.44;28.55;94694.16;5111396;27;20084;-69
2022/04/16 08:51:15;;;;;;;8.80;4.43;;;;;;;18.44;29.77;94704.66;5124976;27;20031;-68
2022/04/16 08:53:41;;;;;;;9.02;5.20;;;;;;;18.53;28.89;94698.38;5108919;27;20079;-69
2022/04/16 08:56:06;;;;;;;10.82;4.68;;;;;;;18.62;28.96;94699.09;5109745;27;20023;-69
2022/04/16 08:58:32;;;;;;;6.65;4.38;;;;;;;18.51;28.60;94701.16;5109131;28;20558;-69
2022/04/16 09:00:58;;;;;;;9.23;5.03;;;;;;;18.20;28.68;94696.00;5101684;27;20118;-69
2022/04/16 09:03:33;;;;;;;11.70;5.55;;;;;;;18.43;29.29;94688.06;5108371;28;20055;-70
2022/04/16 09:05:59;;;;;;;12.65;5.38;;;;;;;18.52;29.16;94681.75;5122229;27;20019;-71
2022/04/16 09:08:29;;;;;;;9.55;4.60;;;;;;;18.65;29.66;94690.84;5128102;27;20412;-71
2022/04/16 09:11:19;;;;;;;8.40;4.38;;;;;;;18.79;29.90;94682.19;5122950;27;20026;-72
2022/04/16 09:13:51;;;;;;;10.18;4.57;;;;;;;18.83;28.79;94683.44;5121878;27;20189;-72
2022/04/16 09:16:17;;;;;;;9.48;4.97;;;;;;;18.66;28.80;94674.88;5124726;28;20061;-71
2022/04/16 09:18:55;;;;;;;8.75;4.80;;;;;;;18.69;29.71;94671.91;5107610;28;20497;-71
2022/04/16 09:21:25;;;;;;;8.35;4.43;;;;;;;18.89;30.08;94669.56;5127882;28;20106;-71
2022/04/16 09:23:53;;;;;;;10.18;4.53;;;;;;;19.00;28.89;94656.94;5129060;27;20042;-71
2022/04/16 09:26:44;;;;;;;9.73;4.43;;;;;;;19.17;29.01;94658.41;5106523;27;20482;-71
2022/04/16 09:29:12;;;;;;;7.63;4.30;;;;;;;19.26;28.83;94649.38;5124374;28;20073;-71
2022/04/16 09:31:38;;;;;;;7.38;4.13;;;;;;;19.28;28.05;94651.81;5129327;27;20019;-73
2022/04/16 09:34:05;;;;;;;10.50;4.75;;;;;;;19.17;28.41;94648.69;5133531;27;20118;-71
2022/04/16 09:36:30;;;;;;;9.63;4.35;;;;;;;19.32;27.81;94639.94;5107974;28;20055;-71
2022/04/16 09:39:06;;;;;;;6.00;4.13;;;;;;;19.35;28.69;94642.19;5109496;28;20039;-70
2022/04/16 09:41:32;;;;;;;9.15;4.35;;;;;;;19.46;26.38;94648.81;5105771;28;20470;-70
2022/04/16 09:43:58;;;;;;;7.95;4.07;;;;;;;19.38;26.53;94644.47;5091551;28;20039;-70
2022/04/16 09:46:23;;;;;;;7.28;4.28;;;;;;;19.42;27.37;94635.19;5110803;28;20039;-70
2022/04/16 09:48:49;;;;;;;8.18;4.55;;;;;;;19.55;27.60;94642.41;5104329;28;20032;-71
2022/04/16 09:51:14;;;;;;;7.75;4.10;;;;;;;19.39;26.92;94643.47;5089618;28;20057;-72
2022/04/16 09:53:40;;;;;;;13.43;4.72;;;;;;;19.39;28.11;94646.09;5095525;28;20498;-72
2022/04/16 09:56:06;;;;;;;7.70;4.07;;;;;;;19.54;28.00;94654.78;5108461;27;20023;-71
2022/04/16 09:58:37;;;;;;;8.60;4.20;;;;;;;19.70;27.93;94651.13;5098682;27;20030;-70
2022/04/16 10:01:03;;;;;;;7.55;4.00;;;;;;;19.82;27.18;94647.00;5129133;27;20034;-70
2022/04/16 10:03:29;;;;;;;7.88;4.07;;;;;;;19.84;26.80;94641.53;5141486;27;20035;-71
2022/04/16 10:05:58;;;;;;;5.13;4.18;;;;;;;19.97;27.58;94648.75;5118349;27;20059;-71
2022/04/16 10:08:25;;;;;;;6.80;4.00;;;;;;;19.81;27.07;94641.91;5098505;27;20119;-70
2022/04/16 10:10:55;;;;;;;6.85;4.18;;;;;;;19.69;26.55;94646.84;5114720;27;20063;-71
2022/04/16 10:13:21;;;;;;;6.50;3.88;;;;;;;19.58;27.04;94640.22;5116810;27;20512;-70
2022/04/16 10:16:01;;;;;;;12.95;4.45;;;;;;;19.76;28.09;94628.47;5127309;27;20106;-71
2022/04/16 10:18:27;;;;;;;6.90;4.15;;;;;;;19.89;27.31;94620.69;5136191;27;20053;-69
2022/04/16 10:20:57;;;;;;;5.75;3.83;;;;;;;19.98;27.61;94627.47;5127791;27;20504;-71
2022/04/16 10:23:38;;;;;;;7.97;4.00;;;;;;;19.87;26.71;94622.72;5136038;27;20369;-68
2022/04/16 10:26:16;;;;;;;6.50;4.13;;;;;;;19.92;26.94;94617.69;5154084;27;20070;-70
2022/04/16 10:28:43;;;;;;;7.60;4.00;;;;;;;20.00;27.10;94614.94;5119132;27;20069;-69
2022/04/16 10:31:24;;;;;;;12.50;5.20;;;;;;;19.97;27.12;94599.47;5126561;27;20027;-69
2022/04/16 10:34:01;;;;;;;5.38;3.97;;;;;;;19.78;27.52;94608.84;5132628;27;20055;-69
2022/04/16 10:36:32;;;;;;;7.10;4.40;;;;;;;19.58;28.38;94610.41;5129278;27;20024;-70
2022/04/16 10:38:59;;;;;;;11.82;4.45;;;;;;;19.62;28.38;94607.25;5111683;28;20115;-70
2022/04/16 10:41:25;;;;;;;6.78;4.07;;;;;;;19.80;27.54;94611.28;5128532;27;20463;-71
2022/04/16 10:44:01;;;;;;;7.90;4.47;;;;;;;19.94;27.69;94599.84;5131326;27;20035;-71
2022/04/16 10:46:44;;;;;;;7.57;4.07;;;;;;;20.11;27.84;94604.84;5111602;27;20039;-71
2022/04/16 10:49:10;;;;;;;14.45;4.40;;;;;;;20.06;27.28;94600.97;5112360;28;20023;-71
2022/04/16 10:51:36;;;;;;;7.70;4.05;;;;;;;20.02;27.84;94604.19;5112149;28;20508;-71
2022/04/16 10:54:14;;;;;;;6.65;3.95;;;;;;;19.88;27.41;94591.91;5112352;28;20035;-70
2022/04/16 10:56:44;;;;;;;5.75;3.83;;;;;;;19.93;27.81;94600.06;5132914;27;20106;-70
2022/04/16 10:59:10;;;;;;;10.43;4.60;;;;;;;20.04;27.90;94591.63;5133258;27;20053;-70
2022/04/16 11:01:36;;;;;;;6.53;4.20;;;;;;;20.01;27.71;94592.81;5132768;27;20041;-70
2022/04/16 11:04:15;;;;;;;8.23;5.32;;;;;;;20.23;28.03;94590.97;5115583;27;20481;-71
2022/04/16 11:06:45;;;;;;;5.95;3.78;;;;;;;20.29;27.57;94590.19;5132831;27;20076;-71
2022/04/16 11:09:16;;;;;;;5.93;3.50;;;;;;;20.29;27.35;94584.13;5116029;27;20035;-70
2022/04/16 11:11:41;;;;;;;6.38;3.88;;;;;;;20.27;27.43;94591.41;5133920;27;20515;-71
2022/04/16 11:14:10;;;;;;;5.25;4.00;;;;;;;20.39;27.49;94595.13;5132820;27;20035;-70
2022/04/16 11:16:47;;;;;;;7.45;3.58;;;;;;;20.39;27.33;94589.84;5115536;27;20034;-71
2022/04/16 11:19:16;;;;;;;5.97;3.28;;;;;;;20.49;27.27;94585.03;5134139;27;20043;-71
2022/04/16 11:21:42;;;;;;;6.78;3.53;;;;;;;20.24;26.31;94565.41;5115817;27;20066;-70
2022/04/16 11:24:07;;;;;;;4.72;3.40;;;;;;;20.41;27.24;94582.56;5133851;27;20080;-70
2022/04/16 11:34:44;;;;;;;5.18;3.28;;;;;;;20.50;26.74;94570.03;5118104;27;20043;-70
2022/04/16 11:37:10;;;;;;;4.38;3.38;;;;;;;20.59;26.69;94570.72;5133381;27;20036;-70
2022/04/16 11:39:35;;;;;;;4.43;3.20;;;;;;;20.61;27.10;94558.16;5132279;27;20028;-70
2022/04/16 11:42:07;;;;;;;4.95;3.50;;;;;;;20.62;26.71;94562.44;5132119;27;20028;-71
2022/04/16 11:44:38;;;;;;;6.00;3.72;;;;;;;20.42;27.70;94555.19;5115531;27;20523;-71
2022/04/16 11:47:17;;;;;;;;;;;;;;;20.49;27.48;94555.22;5133749;27;20027;-70
2022/04/16 11:49:53;;;;;;;4.70;3.40;;;;;;;20.55;28.05;94536.00;5132219;27;19923;-71
2022/04/16 11:52:27;;;;;;;7.10;3.67;;;;;;;20.75;27.54;94544.00;5115490;27;20038;-70
2022/04/16 11:55:06;;;;;;;4.38;3.15;;;;;;;20.88;27.18;94541.44;5133462;27;20514;-71
2022/04/16 11:57:32;;;;;;;10.23;3.88;;;;;;;21.01;27.28;94542.50;5114886;27;20098;-70
2022/04/16 12:00:04;;;;;;;7.13;3.70;;;;;;;21.11;27.32;94535.81;5132944;27;20027;-70